createdAt,value
2023-05-17T00:02:20.848Z,10.60
2023-05-17T00:04:47.843Z,10.60
2023-05-17T00:07:14.769Z,10.60
2023-05-17T00:12:09.099Z,10.50
2023-05-17T00:14:36.056Z,10.50
2023-05-17T00:17:02.907Z,10.50
2023-05-17T00:19:29.833Z,10.50
2023-05-17T00:21:56.788Z,10.50
2023-05-17T00:24:23.754Z,10.50
2023-05-17T00:26:50.643Z,10.50
2023-05-17T00:29:17.560Z,10.40
2023-05-17T00:31:44.465Z,10.30
2023-05-17T00:36:38.578Z,10.10
2023-05-17T00:39:05.483Z,10.20
2023-05-17T00:41:32.460Z,10.10
2023-05-17T00:43:59.383Z,10.10
2023-05-17T00:46:26.395Z,10.10
2023-05-17T00:51:21.790Z,10.10
2023-05-17T00:53:48.960Z,10.10
2023-05-17T00:56:16.019Z,10.10
2023-05-17T01:03:38.731Z,10.10
2023-05-17T01:06:06.579Z,10.00
2023-05-17T01:11:23.969Z,9.90
2023-05-17T01:14:24.767Z,9.90
2023-05-17T01:17:30.645Z,9.90
2023-05-17T01:20:28.737Z,9.90
2023-05-17T01:23:22.744Z,9.90
2023-05-17T01:26:08.657Z,9.90
2023-05-17T01:28:38.409Z,9.90
2023-05-17T01:31:07.427Z,9.90
2023-05-17T01:33:35.167Z,10.00
2023-05-17T01:36:02.230Z,10.00
2023-05-17T01:41:14.002Z,8.80
2023-05-17T01:44:05.682Z,10.10
2023-05-17T01:46:43.493Z,10.20
2023-05-17T01:49:21.868Z,10.20
2023-05-17T01:51:56.558Z,10.30
2023-05-17T01:54:31.172Z,10.30
2023-05-17T01:56:59.569Z,10.40
2023-05-17T01:59:27.731Z,10.40
2023-05-17T02:02:03.971Z,10.40
2023-05-17T02:07:02.215Z,10.50
2023-05-17T02:09:29.471Z,10.50
2023-05-17T02:11:57.017Z,10.50
2023-05-17T02:14:23.965Z,10.50
2023-05-17T02:16:51.035Z,10.50
2023-05-17T02:19:18.006Z,10.50
2023-05-17T02:24:12.223Z,10.40
2023-05-17T02:26:42.849Z,10.40
2023-05-17T02:29:13.308Z,10.40
2023-05-17T02:31:40.368Z,10.30
2023-05-17T02:34:07.342Z,10.30
2023-05-17T02:39:01.863Z,10.30
2023-05-17T02:43:58.100Z,10.30
2023-05-17T02:46:26.802Z,10.30
2023-05-17T02:48:53.650Z,10.40
2023-05-17T02:51:20.662Z,10.40
2023-05-17T02:53:47.615Z,10.40
2023-05-17T02:56:14.590Z,10.40
2023-05-17T03:01:09.642Z,10.50
2023-05-17T03:03:36.878Z,10.50
2023-05-17T03:06:05.340Z,10.50
2023-05-17T03:08:33.301Z,10.50
2023-05-17T03:11:02.233Z,10.50
2023-05-17T03:13:29.797Z,10.50
2023-05-17T03:15:56.749Z,10.50
2023-05-17T03:18:23.809Z,10.50
2023-05-17T03:20:51.318Z,10.60
2023-05-17T03:23:18.507Z,10.60
2023-05-17T03:28:27.037Z,10.50
2023-05-17T03:30:54.234Z,10.60
2023-05-17T03:33:21.725Z,10.60
2023-05-17T03:35:48.831Z,10.70
2023-05-17T03:38:16.102Z,10.70
2023-05-17T03:40:43.248Z,10.70
2023-05-17T03:43:10.202Z,10.70
2023-05-17T03:45:37.304Z,10.70
2023-05-17T03:48:04.655Z,10.70
2023-05-17T03:52:59.791Z,10.70
2023-05-17T03:55:27.088Z,10.70
2023-05-17T03:57:54.836Z,10.70
2023-05-17T04:00:22.137Z,10.80
2023-05-17T04:02:50.634Z,10.80
2023-05-17T04:05:19.660Z,10.80
2023-05-17T04:07:47.892Z,10.80
2023-05-17T04:10:14.856Z,10.80
2023-05-17T04:12:41.893Z,10.90
2023-05-17T04:15:09.751Z,10.90
2023-05-17T04:17:38.541Z,10.90
2023-05-17T04:20:06.774Z,10.80
2023-05-17T04:22:35.272Z,10.80
2023-05-17T04:25:02.246Z,10.80
2023-05-17T04:27:29.669Z,10.90
2023-05-17T04:29:56.617Z,10.90
2023-05-17T04:34:52.139Z,10.90
2023-05-17T04:37:20.154Z,10.90
2023-05-17T04:39:53.087Z,12.20
2023-05-17T04:42:20.840Z,10.90
2023-05-17T04:44:53.508Z,10.90
2023-05-17T04:47:20.776Z,10.90
2023-05-17T04:49:48.802Z,11.00
2023-05-17T04:52:15.703Z,11.00
2023-05-17T04:54:43.257Z,11.00
2023-05-17T04:57:11.591Z,11.10
2023-05-17T05:00:12.241Z,12.70
2023-05-17T05:02:42.333Z,11.10
2023-05-17T05:05:13.227Z,11.10
2023-05-17T05:07:42.520Z,11.10
2023-05-17T05:10:10.450Z,11.10
2023-05-17T05:12:38.171Z,11.20
2023-05-17T05:15:06.266Z,11.20
2023-05-17T05:17:35.086Z,11.30
2023-05-17T05:20:02.432Z,11.30
2023-05-17T05:22:29.537Z,11.30
2023-05-17T05:24:56.793Z,11.40
2023-05-17T05:27:24.166Z,11.40
2023-05-17T05:29:51.518Z,11.40
2023-05-17T05:32:19.024Z,11.50
2023-05-17T05:34:46.837Z,11.50
2023-05-17T05:37:17.250Z,11.50
2023-05-17T05:39:46.498Z,11.60
2023-05-17T05:42:13.640Z,11.60
2023-05-17T05:44:40.531Z,11.60
2023-05-17T05:47:09.009Z,11.60
2023-05-17T05:49:36.769Z,11.60
2023-05-17T05:52:03.902Z,11.60
2023-05-17T05:54:32.348Z,11.60
2023-05-17T05:59:28.028Z,11.60
2023-05-17T06:01:57.055Z,11.60
2023-05-17T06:04:33.076Z,11.60
2023-05-17T06:07:08.037Z,11.60
2023-05-17T06:12:27.539Z,11.60
2023-05-17T06:14:54.412Z,11.60
2023-05-17T06:17:21.629Z,11.60
2023-05-17T06:19:57.886Z,11.60
2023-05-17T06:22:25.026Z,11.60
2023-05-17T06:24:51.890Z,11.60
2023-05-17T06:27:18.776Z,11.60
2023-05-17T06:29:45.657Z,11.70
2023-05-17T06:32:12.527Z,11.70
2023-05-17T06:34:40.157Z,11.70
2023-05-17T06:37:07.038Z,11.70
2023-05-17T06:39:34.050Z,11.80
2023-05-17T06:42:01.541Z,11.80
2023-05-17T06:44:34.239Z,11.80
2023-05-17T06:47:08.612Z,11.80
2023-05-17T06:49:39.172Z,12.00
2023-05-17T06:52:06.107Z,11.90
2023-05-17T06:54:33.045Z,12.00
2023-05-17T06:57:03.533Z,12.00
2023-05-17T07:02:00.364Z,12.10
2023-05-17T07:04:27.745Z,12.10
2023-05-17T07:06:54.885Z,12.20
2023-05-17T07:09:22.242Z,12.20
2023-05-17T07:11:49.898Z,12.20
2023-05-17T07:14:16.771Z,12.20
2023-05-17T07:16:43.718Z,12.20
2023-05-17T07:19:10.798Z,12.20
2023-05-17T07:24:05.230Z,12.20
2023-05-17T07:26:32.573Z,12.10
2023-05-17T07:28:59.729Z,12.00
2023-05-17T07:31:26.613Z,12.00
2023-05-17T07:33:53.576Z,12.10
2023-05-17T07:36:21.656Z,12.10
2023-05-17T07:38:48.621Z,12.30
2023-05-17T07:41:17.127Z,12.20
2023-05-17T07:43:47.114Z,12.20
2023-05-17T07:46:14.011Z,12.20
2023-05-17T07:48:41.147Z,12.20
2023-05-17T07:51:10.556Z,12.20
2023-05-17T07:53:37.429Z,12.20
2023-05-17T07:56:06.846Z,12.10
2023-05-17T07:58:33.744Z,12.10
2023-05-17T08:01:00.670Z,12.10
2023-05-17T08:03:28.571Z,12.20
2023-05-17T08:05:55.513Z,12.20
2023-05-17T08:08:22.597Z,12.20
2023-05-17T08:10:49.825Z,12.20
2023-05-17T08:13:16.794Z,12.20
2023-05-17T08:15:43.768Z,12.30
2023-05-17T08:18:10.932Z,12.30
2023-05-17T08:20:38.103Z,12.30
2023-05-17T08:23:05.148Z,12.40
2023-05-17T08:25:32.205Z,12.40
2023-05-17T08:27:59.288Z,12.50
2023-05-17T08:30:29.300Z,12.50
2023-05-17T08:32:56.816Z,12.60
2023-05-17T08:35:25.620Z,12.50
2023-05-17T08:37:54.688Z,12.40
2023-05-17T08:40:22.269Z,12.40
2023-05-17T08:42:51.001Z,12.40
2023-05-17T08:45:19.010Z,12.40
2023-05-17T08:47:46.679Z,12.50
2023-05-17T08:50:14.452Z,12.50
2023-05-17T08:52:45.858Z,12.50
2023-05-17T08:55:16.317Z,12.50
2023-05-17T08:57:43.532Z,12.50
2023-05-17T09:00:15.202Z,12.40
2023-05-17T09:02:43.143Z,12.30
2023-05-17T09:05:10.832Z,12.30
2023-05-17T09:07:38.232Z,12.30
2023-05-17T09:10:05.921Z,12.40
2023-05-17T09:12:36.788Z,12.50
2023-05-17T09:15:19.902Z,12.50
2023-05-17T09:17:54.520Z,12.50
2023-05-17T09:20:25.970Z,12.60
2023-05-17T09:22:52.940Z,12.60
2023-05-17T09:25:24.271Z,12.60
2023-05-17T09:27:54.813Z,12.60
2023-05-17T09:30:32.816Z,12.50
2023-05-17T09:33:08.839Z,12.60
2023-05-17T09:35:37.840Z,12.60
2023-05-17T09:38:12.088Z,12.60
2023-05-17T09:40:44.350Z,12.70
2023-05-17T09:43:12.336Z,12.70
2023-05-17T09:45:39.724Z,12.80
2023-05-17T09:48:14.781Z,12.80
2023-05-17T09:50:46.554Z,12.80
2023-05-17T09:53:33.228Z,12.80
2023-05-17T09:56:01.362Z,12.90
2023-05-17T09:58:31.537Z,12.90
2023-05-17T10:01:06.217Z,13.00
2023-05-17T10:03:35.683Z,13.00
2023-05-17T10:06:06.309Z,13.00
2023-05-17T10:08:34.409Z,13.10
2023-05-17T10:11:24.533Z,13.10
2023-05-17T10:14:01.589Z,13.10
2023-05-17T10:16:29.655Z,13.10
2023-05-17T10:18:57.010Z,13.20
2023-05-17T10:21:24.382Z,13.10
2023-05-17T10:26:20.859Z,13.10
2023-05-17T10:28:52.215Z,12.90
2023-05-17T10:31:20.399Z,13.00
2023-05-17T10:33:50.458Z,12.90
2023-05-17T10:36:43.976Z,13.00
2023-05-17T10:39:11.741Z,13.10
2023-05-17T10:41:44.004Z,13.10
2023-05-17T10:44:14.771Z,13.10
2023-05-17T10:46:50.796Z,13.20
2023-05-17T10:49:20.379Z,13.20
2023-05-17T10:51:51.889Z,13.10
2023-05-17T10:54:18.914Z,13.10
2023-05-17T10:56:51.368Z,13.00
2023-05-17T10:59:23.516Z,13.10
2023-05-17T11:02:04.060Z,13.00
2023-05-17T11:04:42.012Z,13.10
2023-05-17T11:07:22.150Z,13.10
2023-05-17T11:10:05.918Z,13.20
2023-05-17T11:12:43.146Z,13.20
2023-05-17T11:15:11.340Z,13.30
2023-05-17T11:17:44.623Z,13.30
2023-05-17T11:20:16.420Z,13.20
2023-05-17T11:22:50.674Z,13.30
2023-05-17T11:25:18.933Z,13.20
2023-05-17T11:27:51.695Z,13.20
2023-05-17T11:30:29.756Z,13.20
2023-05-17T11:33:08.821Z,13.20
2023-05-17T11:35:40.895Z,13.20
2023-05-17T11:38:15.671Z,13.20
2023-05-17T11:40:44.090Z,13.20
2023-05-17T11:43:19.175Z,13.10
2023-05-17T11:45:53.850Z,13.10
2023-05-17T11:48:23.020Z,13.20
2023-05-17T11:50:52.179Z,13.10
2023-05-17T11:53:19.931Z,13.20
2023-05-17T11:55:48.846Z,13.20
2023-05-17T11:58:18.057Z,13.20
2023-05-17T12:00:45.479Z,13.20
2023-05-17T12:03:26.934Z,13.20
2023-05-17T12:06:06.268Z,13.20
2023-05-17T12:08:34.419Z,13.20
2023-05-17T12:11:02.158Z,13.30
2023-05-17T12:13:34.153Z,13.30
2023-05-17T12:16:07.126Z,13.30
2023-05-17T12:18:46.142Z,13.20
2023-05-17T12:21:15.281Z,13.20
2023-05-17T12:23:48.827Z,13.20
2023-05-17T12:26:22.394Z,13.20
2023-05-17T12:29:00.285Z,13.20
2023-05-17T12:31:46.242Z,13.20
2023-05-17T12:36:41.658Z,13.40
2023-05-17T12:39:11.069Z,13.40
2023-05-17T12:41:39.013Z,13.40
2023-05-17T12:44:15.400Z,13.40
2023-05-17T12:46:43.896Z,13.50
2023-05-17T12:49:12.236Z,13.20
2023-05-17T12:51:46.909Z,13.40
2023-05-17T12:54:25.403Z,13.40
2023-05-17T12:56:52.604Z,13.40
2023-05-17T12:59:25.720Z,13.40
2023-05-17T13:01:57.582Z,13.40
2023-05-17T13:04:32.655Z,13.40
2023-05-17T13:07:02.693Z,13.40
2023-05-17T13:09:31.442Z,13.40
2023-05-17T13:12:00.977Z,13.40
2023-05-17T13:14:41.903Z,13.40
2023-05-17T13:17:11.618Z,13.30
2023-05-17T13:19:39.681Z,13.30
2023-05-17T13:22:07.651Z,13.30
2023-05-17T13:24:36.492Z,13.40
2023-05-17T13:27:04.211Z,13.40
2023-05-17T13:29:39.672Z,13.40
2023-05-17T13:32:08.787Z,13.40
2023-05-17T13:34:36.112Z,13.30
2023-05-17T13:37:03.356Z,13.40
2023-05-17T13:39:30.366Z,13.40
2023-05-17T13:41:57.627Z,13.50
2023-05-17T13:44:24.862Z,13.50
2023-05-17T13:46:51.787Z,13.60
2023-05-17T13:49:18.863Z,13.60
2023-05-17T13:51:46.045Z,13.70
2023-05-17T13:54:12.946Z,13.80
2023-05-17T13:56:39.904Z,13.80
2023-05-17T13:59:06.843Z,13.80
2023-05-17T14:04:01.537Z,13.70
2023-05-17T14:06:28.892Z,13.70
2023-05-17T14:08:57.176Z,13.80
2023-05-17T14:11:24.093Z,13.70
2023-05-17T14:13:51.050Z,13.80
2023-05-17T14:16:17.926Z,13.90
2023-05-17T14:18:46.008Z,13.80
2023-05-17T14:21:13.008Z,13.80
2023-05-17T14:23:39.934Z,13.80
2023-05-17T14:26:07.686Z,13.80
2023-05-17T14:28:38.008Z,13.70
2023-05-17T14:31:07.150Z,13.70
2023-05-17T14:33:34.606Z,13.60
2023-05-17T14:36:02.109Z,13.50
2023-05-17T14:38:29.023Z,13.50
2023-05-17T14:40:56.161Z,13.60
2023-05-17T14:43:23.598Z,13.70
2023-05-17T14:45:50.492Z,13.70
2023-05-17T14:48:17.427Z,13.70
2023-05-17T14:50:44.346Z,13.70
2023-05-17T14:53:11.333Z,13.90
2023-05-17T14:55:38.238Z,13.80
2023-05-17T14:58:05.262Z,13.80
2023-05-17T15:00:32.255Z,13.80
2023-05-17T15:02:59.302Z,13.70
2023-05-17T15:05:26.355Z,13.70
2023-05-17T15:07:53.301Z,13.80
2023-05-17T15:10:20.817Z,13.70
2023-05-17T15:12:48.869Z,13.80
2023-05-17T15:15:16.237Z,13.70
2023-05-17T15:17:43.214Z,13.70
2023-05-17T15:20:10.764Z,13.70
2023-05-17T15:22:37.784Z,13.60
2023-05-17T15:25:06.054Z,13.60
2023-05-17T15:27:33.018Z,13.60
2023-05-17T15:32:27.717Z,13.70
2023-05-17T15:34:54.624Z,13.80
2023-05-17T15:37:21.600Z,13.80
2023-05-17T15:39:49.703Z,13.80
2023-05-17T15:42:16.617Z,13.80
2023-05-17T15:44:47.089Z,13.80
2023-05-17T15:47:14.065Z,13.70
2023-05-17T15:49:41.370Z,13.70
2023-05-17T15:52:09.025Z,13.70
2023-05-17T15:54:35.937Z,13.60
2023-05-17T15:57:02.904Z,13.70
2023-05-17T15:59:29.846Z,13.60
2023-05-17T16:04:24.028Z,13.70
2023-05-17T16:06:50.965Z,13.80
2023-05-17T16:09:17.873Z,13.70
2023-05-17T16:11:44.882Z,13.80
2023-05-17T16:14:11.903Z,13.80
2023-05-17T16:16:38.748Z,13.80
2023-05-17T16:19:06.327Z,13.80
2023-05-17T16:21:33.606Z,13.80
2023-05-17T16:24:00.546Z,13.80
2023-05-17T16:26:27.775Z,13.80
2023-05-17T16:28:56.841Z,13.70
2023-05-17T16:33:51.803Z,13.80
2023-05-17T16:36:18.913Z,13.80
2023-05-17T16:38:45.892Z,13.90
2023-05-17T16:41:12.770Z,13.90
2023-05-17T16:43:39.661Z,13.80
2023-05-17T16:46:06.493Z,13.90
2023-05-17T16:48:33.414Z,13.90
2023-05-17T16:51:00.423Z,13.90
2023-05-17T16:53:28.274Z,13.90
2023-05-17T16:55:55.493Z,13.90
2023-05-17T16:58:22.372Z,13.80
2023-05-17T17:00:49.961Z,13.80
2023-05-17T17:03:17.203Z,13.80
2023-05-17T17:05:44.208Z,13.70
2023-05-17T17:08:11.450Z,13.70
2023-05-17T17:10:38.922Z,13.70
2023-05-17T17:13:05.806Z,13.70
2023-05-17T17:15:32.999Z,13.70
2023-05-17T17:18:00.413Z,13.70
2023-05-17T17:22:55.837Z,13.70
2023-05-17T17:25:24.730Z,13.70
2023-05-17T17:27:53.095Z,13.70
2023-05-17T17:30:20.537Z,13.70
2023-05-17T17:32:47.633Z,13.60
2023-05-17T17:35:14.698Z,13.60
2023-05-17T17:37:41.550Z,13.50
2023-05-17T17:40:09.042Z,13.50
2023-05-17T17:42:35.948Z,13.50
2023-05-17T17:45:02.963Z,13.40
2023-05-17T17:47:29.871Z,13.40
2023-05-17T17:49:56.894Z,13.40
2023-05-17T17:52:23.826Z,13.40
2023-05-17T17:54:50.721Z,13.40
2023-05-17T17:57:18.972Z,13.30
2023-05-17T17:59:45.932Z,13.30
2023-05-17T18:02:12.876Z,13.30
2023-05-17T18:04:40.575Z,13.20
2023-05-17T18:07:08.098Z,13.30
2023-05-17T18:09:35.038Z,13.20
2023-05-17T18:12:01.939Z,13.20
2023-05-17T18:14:28.882Z,13.20
2023-05-17T18:16:56.113Z,13.20
2023-05-17T18:19:23.140Z,13.20
2023-05-17T18:21:50.737Z,13.20
2023-05-17T18:24:18.590Z,13.10
2023-05-17T18:26:45.811Z,13.10
2023-05-17T18:29:12.677Z,13.10
2023-05-17T18:31:39.723Z,13.10
2023-05-17T18:34:06.622Z,13.00
2023-05-17T18:36:33.621Z,13.00
2023-05-17T18:39:00.964Z,13.00
2023-05-17T18:41:28.104Z,13.00
2023-05-17T18:43:55.916Z,13.00
2023-05-17T18:46:22.791Z,12.90
2023-05-17T18:48:49.829Z,13.00
2023-05-17T18:51:16.791Z,12.90
2023-05-17T18:53:44.321Z,12.80
2023-05-17T18:56:12.537Z,12.80
2023-05-17T18:58:39.423Z,12.80
2023-05-17T19:01:06.345Z,12.70
2023-05-17T19:03:33.339Z,12.70
2023-05-17T19:06:00.294Z,12.70
2023-05-17T19:10:54.729Z,12.70
2023-05-17T19:13:21.629Z,12.60
2023-05-17T19:15:49.613Z,12.60
2023-05-17T19:18:16.681Z,12.60
2023-05-17T19:20:43.618Z,12.50
2023-05-17T19:23:10.753Z,12.50
2023-05-17T19:25:37.709Z,12.50
2023-05-17T19:30:32.860Z,12.40
2023-05-17T19:33:00.354Z,12.40
2023-05-17T19:35:27.271Z,12.40
2023-05-17T19:37:56.603Z,12.40
2023-05-17T19:40:24.395Z,12.40
2023-05-17T19:47:46.577Z,12.30
2023-05-17T19:52:41.303Z,12.20
2023-05-17T19:55:08.397Z,12.20
2023-05-17T19:57:35.431Z,12.20
2023-05-17T20:00:02.774Z,12.20
2023-05-17T20:02:31.231Z,12.20
2023-05-17T20:05:00.075Z,12.20
2023-05-17T20:07:26.988Z,12.10
2023-05-17T20:09:54.074Z,12.10
2023-05-17T20:12:21.010Z,12.10
2023-05-17T20:14:48.144Z,12.00
2023-05-17T20:17:15.078Z,12.00
2023-05-17T20:19:42.114Z,12.00
2023-05-17T20:22:09.041Z,12.00
2023-05-17T20:24:36.179Z,12.00
2023-05-17T20:27:03.366Z,11.90
2023-05-17T20:29:30.570Z,11.90
2023-05-17T20:31:57.695Z,11.90
2023-05-17T20:34:28.359Z,11.90
2023-05-17T20:36:56.432Z,11.90
2023-05-17T20:39:25.559Z,11.90
2023-05-17T20:41:52.547Z,11.80
2023-05-17T20:44:20.029Z,11.80
2023-05-17T20:46:47.196Z,11.80
2023-05-17T20:49:14.239Z,11.80
2023-05-17T20:51:41.355Z,11.80
2023-05-17T20:54:08.858Z,11.80
2023-05-17T20:56:37.055Z,11.70
2023-05-17T20:59:04.001Z,11.70
2023-05-17T21:03:59.122Z,11.70
2023-05-17T21:06:29.641Z,11.70
2023-05-17T21:11:29.862Z,11.60
2023-05-17T21:14:00.174Z,11.60
2023-05-17T21:16:27.617Z,11.60
2023-05-17T21:18:54.561Z,11.60
2023-05-17T21:21:21.526Z,11.50
2023-05-17T21:23:48.834Z,11.50
2023-05-17T21:26:15.743Z,11.40
2023-05-17T21:28:42.692Z,11.40
2023-05-17T21:31:09.634Z,11.40
2023-05-17T21:33:36.718Z,11.40
2023-05-17T21:36:03.830Z,11.30
2023-05-17T21:40:58.092Z,11.30
2023-05-17T21:43:25.038Z,11.20
2023-05-17T21:45:52.496Z,11.20
2023-05-17T21:48:19.414Z,11.10
2023-05-17T21:53:13.853Z,11.10
2023-05-17T21:55:51.299Z,11.10
2023-05-17T21:58:27.708Z,11.00
2023-05-17T22:00:54.689Z,11.00
2023-05-17T22:03:22.204Z,11.00
2023-05-17T22:05:49.269Z,10.90
2023-05-17T22:08:16.169Z,10.90
2023-05-17T22:10:44.130Z,10.80
2023-05-17T22:13:12.394Z,10.80
2023-05-17T22:15:41.494Z,10.80
2023-05-17T22:18:09.141Z,10.70
2023-05-17T22:20:36.117Z,10.70
2023-05-17T22:23:03.196Z,10.70
2023-05-17T22:25:30.186Z,10.70
2023-05-17T22:27:57.117Z,10.70
2023-05-17T22:30:24.022Z,10.70
2023-05-17T22:32:54.605Z,10.70
2023-05-17T22:35:21.735Z,10.60
2023-05-17T22:37:50.069Z,10.60
2023-05-17T22:40:16.949Z,10.60
2023-05-17T22:42:44.884Z,10.60
2023-05-17T22:45:15.010Z,10.50
2023-05-17T22:47:46.928Z,10.50
2023-05-17T22:50:15.609Z,10.50
2023-05-17T22:55:10.909Z,10.40
2023-05-17T22:57:38.267Z,10.40
2023-05-17T23:00:06.354Z,10.30
2023-05-17T23:02:33.246Z,10.30
2023-05-17T23:05:03.756Z,10.30
2023-05-17T23:10:07.042Z,10.30
2023-05-17T23:12:35.970Z,10.20
2023-05-17T23:15:06.490Z,10.20
2023-05-17T23:17:33.548Z,10.20
2023-05-17T23:20:13.022Z,10.20
2023-05-17T23:22:40.535Z,10.10
2023-05-17T23:25:07.691Z,10.10
2023-05-17T23:30:03.111Z,10.00
2023-05-17T23:32:33.985Z,10.00
2023-05-17T23:35:04.765Z,9.90
2023-05-17T23:37:33.008Z,9.90
2023-05-17T23:40:00.528Z,9.90
2023-05-17T23:42:29.325Z,9.80
2023-05-17T23:44:56.286Z,9.80
2023-05-17T23:47:23.815Z,9.70
2023-05-17T23:52:19.146Z,9.60
2023-05-17T23:54:47.484Z,9.60
2023-05-17T23:59:42.105Z,9.60
